Gruenow, Germany

5:10 AM CEST on August 23, 2014 (GMT +0200)
Kroechlendorff | Change Station
CLOSE
Current Station
Personal Weather Station
Location: Nordwestuckermark, BRANDENBURG
Elevation: 177 ft
Nearby Weather Stations

Elev 177 ft 53.27 °N, 13.69 °E | Updated 0 second ago

Mostly Cloudy
Mostly Cloudy
52.9 °F
Feels Like 52.9 °F
N
2.0
Wind Variable Wind from SSW
Gusts 2.5 mph

Today
High -- | Low -- °F
--% Chance of Precip.
Yesterday
High -- | Low -- °F
Precip. -- in
5:57 AM 8:14 PM
Waning Crescent, 5% visible
Pressure 29.86 in
Visibility 6.2 miles
Clouds Scattered Clouds 4000 ft
Mostly Cloudy 11000 ft
Dew Point 51 °F
Humidity 93%
Rainfall 0.00 in
Snow Depth Not available.
UV 0.0 out of 12
Pollen Not available.
Air Quality Not available.
Flu Activity Not available.
METAR EDDT 230250Z 25006KT 9999 SCT040 BKN110 12/09 Q1011 NOSIG

More Conditions Fewer Conditions

Pressure 29.86 in
Visibility 6.2 miles
Clouds Scattered Clouds 4000 ft
Mostly Cloudy 11000 ft
Dew Point 51 °F
Humidity 93%
Rainfall 0.00 in
Snow Depth Not available.
UV 0.0 out of 12
Pollen Not available.
Air Quality Not available.
Flu Activity Not available.
METAR EDDT 230250Z 25006KT 9999 SCT040 BKN110 12/09 Q1011 NOSIG

More Conditions Fewer Conditions

10-Day Weather Forecast

Almanac

Astronomy

Aug. 23, 2014 Rise Set
Actual Time 5:57 AM CEST 8:14 PM CEST
Civil Twilight 5:19 AM CEST 8:52 PM CEST
Nautical Twilight 4:31 AM CEST 9:40 PM CEST
Astronomical Twilight 3:33 AM CEST 10:37 PM CEST
Moon 3:51 AM CEST 6:52 PM CEST
Length of Visible Light 15h 33m
Length of Day
14h 17m
Tomorrow will be 3m 59s shorter.
Waning Crescent, 5% of the Moon is Illuminated
Aug 22
Waning Crescent
Aug 25
New
Sep 2
First Quarter
Sep 8
Full
Sep 15
Last Quarter

Yesterday's Extremes

Country Highs Country Lows

Community

WunderPhotos

Upload Photos

1,746,345 photos uploaded!

WunderBlogs® & News

Nearby

Snow Depth

Not available.

Earthquake Activity

City Distance Mag. Time & Date
No recent earthquake activity has been reported nearby.
Minimum magnitude displayed is 2.5.

Coastal Water Temperatures

Place Temperature
No Stations Reporting

Nearby Weather Stations